createdAt,value
2022-11-07T00:00:02.938Z,0
2022-11-07T00:05:02.991Z,0
2022-11-07T00:10:02.926Z,0
2022-11-07T00:15:03.145Z,0
2022-11-07T00:20:03.183Z,0
2022-11-07T00:25:02.964Z,0
2022-11-07T00:30:02.968Z,0
2022-11-07T00:35:02.972Z,0
2022-11-07T00:40:03.190Z,0
2022-11-07T00:45:03.105Z,0
2022-11-07T00:50:03.118Z,0
2022-11-07T00:55:03.029Z,0
2022-11-07T01:00:03.068Z,0
2022-11-07T01:05:03.102Z,0
2022-11-07T01:10:03.176Z,0
2022-11-07T01:15:03.170Z,0
2022-11-07T01:20:03.008Z,0
2022-11-07T01:25:03.135Z,0
2022-11-07T01:30:03.035Z,0
2022-11-07T12:25:06.384Z,3.563671957671958
2022-11-07T12:30:01.325Z,3.1497566137566135
2022-11-07T12:35:01.281Z,4.616444444444444
2022-11-07T12:40:01.253Z,8.42484656084656
2022-11-07T12:45:01.618Z,7.68352380952381
2022-11-07T12:50:01.328Z,6.6491216931216925
2022-11-07T12:55:01.277Z,1.6032592592592594
2022-11-07T13:00:02.648Z,2.3082645502645502
2022-11-07T13:05:01.752Z,5.693841269841269
2022-11-07T13:10:01.325Z,6.922835978835979
2022-11-07T13:15:01.340Z,11.872994708994709
2022-11-07T13:20:01.382Z,3.2985079365079364
2022-11-07T13:25:04.513Z,1.5808042328042327
2022-11-07T13:30:01.303Z,2.1502433862433863
2022-11-07T13:35:01.305Z,0.23524867724867723
2022-11-07T13:40:01.298Z,3.004518518518519
2022-11-07T13:45:01.384Z,4.056899470899471
2022-11-07T13:50:01.495Z,3.722444444444445
2022-11-07T13:55:01.461Z,1.9644973544973545
2022-11-07T14:00:01.433Z,2.017037037037037
2022-11-07T14:05:16.667Z,3.40637037037037
2022-11-07T14:10:01.552Z,2.1117248677248677
2022-11-07T14:15:01.383Z,1.1283703703703705
2022-11-07T14:20:01.400Z,1.668645502645503
2022-11-07T14:25:01.315Z,1.6853015873015873
2022-11-07T14:30:01.440Z,0.5996190476190476
2022-11-07T14:35:01.343Z,1.1254708994708995
2022-11-07T14:40:01.389Z,2.033767195767196
2022-11-07T14:45:01.404Z,1.082867724867725
2022-11-07T14:50:01.422Z,0.23627513227513228
2022-11-07T14:55:01.575Z,0
2022-11-07T15:00:01.465Z,0
2022-11-07T15:05:08.133Z,0
2022-11-07T15:10:01.480Z,0
2022-11-07T15:15:01.464Z,0
2022-11-07T15:20:01.773Z,0
2022-11-07T15:25:01.406Z,0
2022-11-07T15:30:01.477Z,0
2022-11-07T15:35:22.857Z,0
2022-11-07T15:40:01.605Z,0
2022-11-07T15:45:01.430Z,0
2022-11-07T15:50:01.386Z,0
2022-11-07T15:55:01.458Z,0
2022-11-07T16:00:01.480Z,0
2022-11-07T16:05:01.607Z,0
2022-11-07T16:10:01.421Z,0
2022-11-07T16:15:01.485Z,0
2022-11-07T16:20:01.846Z,0
2022-11-07T16:25:01.574Z,0
2022-11-07T16:30:01.609Z,0
2022-11-07T16:35:01.482Z,0
2022-11-07T16:40:01.540Z,0
2022-11-07T16:45:01.568Z,0
2022-11-07T16:50:01.713Z,0
2022-11-07T16:55:01.652Z,0
2022-11-07T17:00:01.496Z,0
2022-11-07T17:05:01.533Z,0
2022-11-07T17:10:01.643Z,0
2022-11-07T17:15:01.655Z,0
2022-11-07T17:20:01.557Z,0
2022-11-07T17:25:01.545Z,0
2022-11-07T17:30:04.556Z,0
2022-11-07T17:35:25.873Z,0
2022-11-07T17:40:01.759Z,0
2022-11-07T17:45:01.582Z,0
2022-11-07T17:50:02.912Z,0
2022-11-07T17:55:03.120Z,0
2022-11-07T18:00:01.567Z,0
2022-11-07T18:05:01.679Z,0
2022-11-07T18:10:01.558Z,0
2022-11-07T18:15:01.589Z,0
2022-11-07T18:20:01.586Z,0
2022-11-07T18:25:01.577Z,0
2022-11-07T18:30:02.003Z,0
2022-11-07T18:35:01.587Z,0
2022-11-07T18:40:01.563Z,0
2022-11-07T18:45:01.602Z,0
2022-11-07T18:50:01.580Z,0
2022-11-07T18:55:01.739Z,0
2022-11-07T19:00:01.591Z,0
2022-11-07T19:05:01.646Z,0
2022-11-07T19:10:01.644Z,0
2022-11-07T19:15:01.670Z,0
2022-11-07T19:20:01.858Z,0
2022-11-07T19:25:01.678Z,0
2022-11-07T19:30:01.731Z,0
2022-11-07T19:35:01.601Z,0
2022-11-07T19:40:01.629Z,0
2022-11-07T19:45:01.735Z,0
2022-11-07T19:50:01.918Z,0
2022-11-07T19:55:01.603Z,0
2022-11-07T20:00:01.636Z,0
2022-11-07T20:05:01.726Z,0
2022-11-07T20:10:01.661Z,0
2022-11-07T20:15:01.850Z,0
2022-11-07T20:20:05.374Z,0
2022-11-07T20:25:01.676Z,0
2022-11-07T20:30:01.651Z,0
2022-11-07T20:35:01.748Z,0
2022-11-07T20:40:01.862Z,0
2022-11-07T20:45:01.714Z,0
2022-11-07T20:50:01.700Z,0
2022-11-07T20:55:01.689Z,0
2022-11-07T21:00:01.694Z,0
2022-11-07T21:05:16.987Z,0
2022-11-07T21:10:01.868Z,0
2022-11-07T21:15:01.730Z,0
2022-11-07T21:20:01.752Z,0
2022-11-07T21:25:01.929Z,0
2022-11-07T21:30:01.708Z,0
2022-11-07T21:35:01.997Z,0
2022-11-07T21:40:01.756Z,0
2022-11-07T21:45:01.749Z,0
2022-11-07T21:50:06.384Z,0
2022-11-07T21:55:01.733Z,0
2022-11-07T22:00:01.821Z,0
2022-11-07T22:05:01.902Z,0
2022-11-07T22:10:01.833Z,0
2022-11-07T22:15:01.915Z,0
2022-11-07T22:20:01.787Z,0
2022-11-07T22:25:01.793Z,0
2022-11-07T22:30:01.922Z,0
2022-11-07T22:35:06.377Z,0
2022-11-07T22:40:01.817Z,0
2022-11-07T22:45:01.787Z,0
2022-11-07T22:50:01.809Z,0
2022-11-07T22:55:02.057Z,0
2022-11-07T23:00:12.701Z,0
2022-11-07T23:05:01.800Z,0
2022-11-07T23:10:01.904Z,0
2022-11-07T23:15:01.846Z,0
2022-11-07T23:20:01.863Z,0
2022-11-07T23:25:01.885Z,0
2022-11-07T23:30:01.787Z,0
2022-11-07T23:35:01.834Z,0
2022-11-07T23:40:01.818Z,0
2022-11-07T23:45:01.860Z,0
2022-11-07T23:50:01.867Z,0
2022-11-07T23:55:01.907Z,0
